sensor_id;sensor_type;location;lat;lon;timestamp;temperature;humidity
75091;DHT22;63674;48.048;8.306;2024-03-23T00:52:43;3.80;99.90
75091;DHT22;63674;48.048;8.306;2024-03-23T01:00:06;3.70;99.90
75091;DHT22;63674;48.048;8.306;2024-03-23T01:02:36;3.80;99.90
75091;DHT22;63674;48.048;8.306;2024-03-23T01:05:04;3.70;99.90
75091;DHT22;63674;48.048;8.306;2024-03-23T01:07:30;3.80;99.90
75091;DHT22;63674;48.048;8.306;2024-03-23T01:09:59;3.80;99.90
75091;DHT22;63674;48.048;8.306;2024-03-23T01:12:26;3.90;99.90
75091;DHT22;63674;48.048;8.306;2024-03-23T01:14:53;4.10;99.90
75091;DHT22;63674;48.048;8.306;2024-03-23T01:17:20;4.00;99.90
75091;DHT22;63674;48.048;8.306;2024-03-23T01:19:47;4.10;99.90
75091;DHT22;63674;48.048;8.306;2024-03-23T01:22:14;4.30;99.90
75091;DHT22;63674;48.048;8.306;2024-03-23T01:27:10;3.90;99.90
75091;DHT22;63674;48.048;8.306;2024-03-23T01:29:37;4.30;99.90
75091;DHT22;63674;48.048;8.306;2024-03-23T01:32:05;4.70;99.90
75091;DHT22;63674;48.048;8.306;2024-03-23T01:34:33;4.70;99.90
75091;DHT22;63674;48.048;8.306;2024-03-23T01:37:00;4.70;99.90
75091;DHT22;63674;48.048;8.306;2024-03-23T01:39:27;5.10;99.90
75091;DHT22;63674;48.048;8.306;2024-03-23T01:41:54;5.90;99.90
75091;DHT22;63674;48.048;8.306;2024-03-23T01:44:23;6.00;99.90
75091;DHT22;63674;48.048;8.306;2024-03-23T01:46:50;5.70;99.90
75091;DHT22;63674;48.048;8.306;2024-03-23T01:49:17;6.20;99.90
75091;DHT22;63674;48.048;8.306;2024-03-23T01:51:44;6.30;99.90
75091;DHT22;63674;48.048;8.306;2024-03-23T01:56:39;7.10;99.90
75091;DHT22;63674;48.048;8.306;2024-03-23T01:59:07;8.00;99.90
75091;DHT22;63674;48.048;8.306;2024-03-23T02:01:36;8.10;99.90
75091;DHT22;63674;48.048;8.306;2024-03-23T02:04:04;8.20;99.90
75091;DHT22;63674;48.048;8.306;2024-03-23T02:06:49;8.40;99.90
75091;DHT22;63674;48.048;8.306;2024-03-23T02:09:36;8.80;99.90
75091;DHT22;63674;48.048;8.306;2024-03-23T02:12:21;9.60;99.90
75091;DHT22;63674;48.048;8.306;2024-03-23T02:15:07;9.60;99.90
75091;DHT22;63674;48.048;8.306;2024-03-23T02:17:54;9.40;99.90
75091;DHT22;63674;48.048;8.306;2024-03-23T02:20:40;9.60;99.90
75091;DHT22;63674;48.048;8.306;2024-03-23T02:23:27;9.70;99.90
75091;DHT22;63674;48.048;8.306;2024-03-23T02:26:13;10.10;99.90
75091;DHT22;63674;48.048;8.306;2024-03-23T02:28:59;10.40;99.90
75091;DHT22;63674;48.048;8.306;2024-03-23T02:31:45;10.40;99.90
75091;DHT22;63674;48.048;8.306;2024-03-23T02:34:31;10.30;99.90
75091;DHT22;63674;48.048;8.306;2024-03-23T02:37:17;10.40;99.90
75091;DHT22;63674;48.048;8.306;2024-03-23T02:40:04;10.40;99.90
75091;DHT22;63674;48.048;8.306;2024-03-23T02:42:50;10.30;99.90
75091;DHT22;63674;48.048;8.306;2024-03-23T02:45:36;10.20;99.90
75091;DHT22;63674;48.048;8.306;2024-03-23T02:48:22;10.20;99.90
75091;DHT22;63674;48.048;8.306;2024-03-23T02:51:08;10.30;99.90
75091;DHT22;63674;48.048;8.306;2024-03-23T02:53:54;10.30;99.90
75091;DHT22;63674;48.048;8.306;2024-03-23T02:56:41;10.50;99.90
75091;DHT22;63674;48.048;8.306;2024-03-23T02:59:27;10.40;99.90
75091;DHT22;63674;48.048;8.306;2024-03-23T03:02:13;10.40;99.90
75091;DHT22;63674;48.048;8.306;2024-03-23T03:05:00;10.10;99.90
75091;DHT22;63674;48.048;8.306;2024-03-23T03:07:45;10.10;99.90
75091;DHT22;63674;48.048;8.306;2024-03-23T03:10:32;10.30;99.90
75091;DHT22;63674;48.048;8.306;2024-03-23T03:13:20;10.30;99.90
75091;DHT22;63674;48.048;8.306;2024-03-23T03:16:08;10.20;99.90
75091;DHT22;63674;48.048;8.306;2024-03-23T03:18:54;10.40;99.90
75091;DHT22;63674;48.048;8.306;2024-03-23T03:21:40;10.10;99.90
75091;DHT22;63674;48.048;8.306;2024-03-23T03:27:12;10.20;99.90
75091;DHT22;63674;48.048;8.306;2024-03-23T03:29:58;10.20;99.90
75091;DHT22;63674;48.048;8.306;2024-03-23T03:35:31;10.10;99.90
75091;DHT22;63674;48.048;8.306;2024-03-23T03:38:18;10.00;99.90
75091;DHT22;63674;48.048;8.306;2024-03-23T03:41:03;10.00;99.90
75091;DHT22;63674;48.048;8.306;2024-03-23T03:43:51;9.90;99.90
75091;DHT22;63674;48.048;8.306;2024-03-23T03:46:37;9.90;99.90
75091;DHT22;63674;48.048;8.306;2024-03-23T03:49:23;10.00;99.90
75091;DHT22;63674;48.048;8.306;2024-03-23T03:52:08;10.10;99.90
75091;DHT22;63674;48.048;8.306;2024-03-23T03:55:01;10.10;99.90
75091;DHT22;63674;48.048;8.306;2024-03-23T03:57:47;10.00;99.90
75091;DHT22;63674;48.048;8.306;2024-03-23T04:00:33;10.20;99.90
75091;DHT22;63674;48.048;8.306;2024-03-23T04:03:20;10.10;99.90
75091;DHT22;63674;48.048;8.306;2024-03-23T04:06:06;10.20;99.90
75091;DHT22;63674;48.048;8.306;2024-03-23T04:11:38;10.00;99.90
75091;DHT22;63674;48.048;8.306;2024-03-23T04:17:11;10.00;99.90
75091;DHT22;63674;48.048;8.306;2024-03-23T04:19:57;9.90;99.90
75091;DHT22;63674;48.048;8.306;2024-03-23T04:22:44;9.80;99.90
75091;DHT22;63674;48.048;8.306;2024-03-23T04:25:29;9.60;99.90
75091;DHT22;63674;48.048;8.306;2024-03-23T04:28:16;9.80;99.90
75091;DHT22;63674;48.048;8.306;2024-03-23T04:30:42;9.80;99.90
75091;DHT22;63674;48.048;8.306;2024-03-23T04:33:10;9.70;99.90
75091;DHT22;63674;48.048;8.306;2024-03-23T04:35:38;9.80;99.90
75091;DHT22;63674;48.048;8.306;2024-03-23T04:38:05;9.80;99.90
75091;DHT22;63674;48.048;8.306;2024-03-23T04:40:33;9.80;99.90
75091;DHT22;63674;48.048;8.306;2024-03-23T04:45:28;9.50;99.90
75091;DHT22;63674;48.048;8.306;2024-03-23T04:47:55;9.50;99.90
75091;DHT22;63674;48.048;8.306;2024-03-23T04:50:23;9.40;99.90
75091;DHT22;63674;48.048;8.306;2024-03-23T04:52:52;9.30;99.90
75091;DHT22;63674;48.048;8.306;2024-03-23T04:57:48;9.30;99.90
75091;DHT22;63674;48.048;8.306;2024-03-23T05:00:15;9.40;99.90
75091;DHT22;63674;48.048;8.306;2024-03-23T05:02:44;9.40;99.90
75091;DHT22;63674;48.048;8.306;2024-03-23T05:05:11;9.30;99.90
75091;DHT22;63674;48.048;8.306;2024-03-23T05:07:39;9.30;99.90
75091;DHT22;63674;48.048;8.306;2024-03-23T05:10:09;9.40;99.90
75091;DHT22;63674;48.048;8.306;2024-03-23T05:12:37;9.40;99.90
75091;DHT22;63674;48.048;8.306;2024-03-23T05:15:04;9.30;99.90
75091;DHT22;63674;48.048;8.306;2024-03-23T05:17:32;9.20;99.90
75091;DHT22;63674;48.048;8.306;2024-03-23T05:19:59;9.30;99.90
75091;DHT22;63674;48.048;8.306;2024-03-23T05:22:27;9.20;99.90
75091;DHT22;63674;48.048;8.306;2024-03-23T05:24:53;9.20;99.90
75091;DHT22;63674;48.048;8.306;2024-03-23T05:27:23;9.00;99.90
75091;DHT22;63674;48.048;8.306;2024-03-23T05:34:44;8.90;99.90
75091;DHT22;63674;48.048;8.306;2024-03-23T05:37:11;9.00;99.90
75091;DHT22;63674;48.048;8.306;2024-03-23T05:39:38;9.00;99.90
75091;DHT22;63674;48.048;8.306;2024-03-23T05:42:06;8.80;99.90
75091;DHT22;63674;48.048;8.306;2024-03-23T05:44:33;8.60;99.90
75091;DHT22;63674;48.048;8.306;2024-03-23T05:49:28;8.70;99.90
75091;DHT22;63674;48.048;8.306;2024-03-23T05:51:55;8.40;99.90
75091;DHT22;63674;48.048;8.306;2024-03-23T05:54:22;8.30;99.90
75091;DHT22;63674;48.048;8.306;2024-03-23T05:56:49;8.10;99.90
75091;DHT22;63674;48.048;8.306;2024-03-23T05:59:15;8.10;99.90
75091;DHT22;63674;48.048;8.306;2024-03-23T06:01:46;8.00;99.90
75091;DHT22;63674;48.048;8.306;2024-03-23T06:04:13;7.90;99.90
75091;DHT22;63674;48.048;8.306;2024-03-23T06:09:07;7.90;99.90
75091;DHT22;63674;48.048;8.306;2024-03-23T06:11:35;7.80;99.90
75091;DHT22;63674;48.048;8.306;2024-03-23T06:16:29;7.80;99.90
75091;DHT22;63674;48.048;8.306;2024-03-23T06:18:58;7.70;99.90
75091;DHT22;63674;48.048;8.306;2024-03-23T06:23:52;7.30;99.90
75091;DHT22;63674;48.048;8.306;2024-03-23T06:26:20;7.30;99.90
75091;DHT22;63674;48.048;8.306;2024-03-23T06:28:47;6.90;99.90
75091;DHT22;63674;48.048;8.306;2024-03-23T06:31:15;7.00;99.90
75091;DHT22;63674;48.048;8.306;2024-03-23T06:36:11;6.70;99.90
75091;DHT22;63674;48.048;8.306;2024-03-23T06:38:37;6.70;99.90
75091;DHT22;63674;48.048;8.306;2024-03-23T06:41:05;6.70;99.90
75091;DHT22;63674;48.048;8.306;2024-03-23T06:43:32;6.60;99.90
75091;DHT22;63674;48.048;8.306;2024-03-23T06:45:59;6.70;99.90
75091;DHT22;63674;48.048;8.306;2024-03-23T06:50:56;6.60;99.90
75091;DHT22;63674;48.048;8.306;2024-03-23T06:53:24;6.60;99.90
75091;DHT22;63674;48.048;8.306;2024-03-23T06:55:52;6.50;99.90
75091;DHT22;63674;48.048;8.306;2024-03-23T06:58:20;7.10;99.90
75091;DHT22;63674;48.048;8.306;2024-03-23T07:03:16;6.30;99.90
75091;DHT22;63674;48.048;8.306;2024-03-23T07:05:44;6.20;99.90
75091;DHT22;63674;48.048;8.306;2024-03-23T07:08:12;6.00;99.90
75091;DHT22;63674;48.048;8.306;2024-03-23T07:10:46;6.20;99.90
75091;DHT22;63674;48.048;8.306;2024-03-23T07:18:07;5.90;99.90
75091;DHT22;63674;48.048;8.306;2024-03-23T07:23:01;5.90;99.90
75091;DHT22;63674;48.048;8.306;2024-03-23T07:25:29;5.70;99.90
75091;DHT22;63674;48.048;8.306;2024-03-23T07:27:57;5.60;99.90
75091;DHT22;63674;48.048;8.306;2024-03-23T07:30:25;5.70;99.90
75091;DHT22;63674;48.048;8.306;2024-03-23T07:35:20;5.40;99.90
75091;DHT22;63674;48.048;8.306;2024-03-23T07:37:46;5.70;99.90
75091;DHT22;63674;48.048;8.306;2024-03-23T07:40:14;5.70;99.90
75091;DHT22;63674;48.048;8.306;2024-03-23T07:45:10;5.80;99.90
75091;DHT22;63674;48.048;8.306;2024-03-23T07:47:36;5.70;99.90
75091;DHT22;63674;48.048;8.306;2024-03-23T07:50:05;5.80;99.90
75091;DHT22;63674;48.048;8.306;2024-03-23T07:52:32;5.80;99.90
75091;DHT22;63674;48.048;8.306;2024-03-23T07:55:00;5.80;99.90
75091;DHT22;63674;48.048;8.306;2024-03-23T07:57:26;5.60;99.90
75091;DHT22;63674;48.048;8.306;2024-03-23T07:59:54;5.50;99.90
75091;DHT22;63674;48.048;8.306;2024-03-23T08:02:22;5.40;99.90
75091;DHT22;63674;48.048;8.306;2024-03-23T08:04:49;5.30;99.90
75091;DHT22;63674;48.048;8.306;2024-03-23T08:07:16;5.20;99.90
75091;DHT22;63674;48.048;8.306;2024-03-23T08:09:44;5.20;99.90
75091;DHT22;63674;48.048;8.306;2024-03-23T08:12:10;5.20;99.90
75091;DHT22;63674;48.048;8.306;2024-03-23T08:14:38;5.00;99.90
75091;DHT22;63674;48.048;8.306;2024-03-23T08:17:04;5.20;99.90
75091;DHT22;63674;48.048;8.306;2024-03-23T08:19:33;4.90;99.90
75091;DHT22;63674;48.048;8.306;2024-03-23T08:21:59;5.10;99.90
75091;DHT22;63674;48.048;8.306;2024-03-23T08:24:28;4.90;99.90
75091;DHT22;63674;48.048;8.306;2024-03-23T08:26:56;4.90;99.90
75091;DHT22;63674;48.048;8.306;2024-03-23T08:29:23;4.80;99.90
75091;DHT22;63674;48.048;8.306;2024-03-23T08:31:50;4.70;99.90
75091;DHT22;63674;48.048;8.306;2024-03-23T08:34:17;4.60;99.90
75091;DHT22;63674;48.048;8.306;2024-03-23T08:36:45;4.40;99.90
75091;DHT22;63674;48.048;8.306;2024-03-23T08:39:12;5.20;99.90
75091;DHT22;63674;48.048;8.306;2024-03-23T08:44:09;4.70;99.90
75091;DHT22;63674;48.048;8.306;2024-03-23T08:46:35;5.80;99.90
75091;DHT22;63674;48.048;8.306;2024-03-23T08:49:03;5.20;99.90
75091;DHT22;63674;48.048;8.306;2024-03-23T08:51:29;6.00;99.90
75091;DHT22;63674;48.048;8.306;2024-03-23T08:53:58;6.00;99.90
75091;DHT22;63674;48.048;8.306;2024-03-23T08:56:25;6.10;99.90
75091;DHT22;63674;48.048;8.306;2024-03-23T09:01:19;6.40;99.90
75091;DHT22;63674;48.048;8.306;2024-03-23T09:03:46;6.70;99.90
75091;DHT22;63674;48.048;8.306;2024-03-23T09:06:14;6.50;99.90
75091;DHT22;63674;48.048;8.306;2024-03-23T09:08:42;6.50;99.90
75091;DHT22;63674;48.048;8.306;2024-03-23T09:11:12;6.10;99.90
75091;DHT22;63674;48.048;8.306;2024-03-23T09:13:40;6.20;99.90
75091;DHT22;63674;48.048;8.306;2024-03-23T09:16:07;6.00;99.90
75091;DHT22;63674;48.048;8.306;2024-03-23T09:18:36;6.10;99.90
75091;DHT22;63674;48.048;8.306;2024-03-23T09:21:03;5.80;99.90
75091;DHT22;63674;48.048;8.306;2024-03-23T09:23:31;5.60;99.90
75091;DHT22;63674;48.048;8.306;2024-03-23T09:28:31;5.50;99.90
75091;DHT22;63674;48.048;8.306;2024-03-23T09:31:02;5.10;99.90
75091;DHT22;63674;48.048;8.306;2024-03-23T09:33:30;5.30;99.90
75091;DHT22;63674;48.048;8.306;2024-03-23T09:35:56;5.50;99.90
75091;DHT22;63674;48.048;8.306;2024-03-23T09:38:24;6.00;99.90
75091;DHT22;63674;48.048;8.306;2024-03-23T09:40:53;6.10;99.90
75091;DHT22;63674;48.048;8.306;2024-03-23T09:43:21;6.00;99.90
75091;DHT22;63674;48.048;8.306;2024-03-23T09:45:49;6.20;99.90
75091;DHT22;63674;48.048;8.306;2024-03-23T09:48:17;6.00;99.90
75091;DHT22;63674;48.048;8.306;2024-03-23T09:50:44;6.00;99.90
75091;DHT22;63674;48.048;8.306;2024-03-23T09:53:13;5.90;99.90
75091;DHT22;63674;48.048;8.306;2024-03-23T09:55:41;6.10;99.90
75091;DHT22;63674;48.048;8.306;2024-03-23T09:58:12;6.30;99.90
75091;DHT22;63674;48.048;8.306;2024-03-23T10:00:39;6.70;99.90
75091;DHT22;63674;48.048;8.306;2024-03-23T10:03:08;6.60;99.90
75091;DHT22;63674;48.048;8.306;2024-03-23T10:05:37;6.40;99.90
75091;DHT22;63674;48.048;8.306;2024-03-23T10:08:18;6.10;99.90
75091;DHT22;63674;48.048;8.306;2024-03-23T10:10:45;6.50;99.90
75091;DHT22;63674;48.048;8.306;2024-03-23T10:13:24;6.10;99.90
75091;DHT22;63674;48.048;8.306;2024-03-23T10:15:58;5.80;99.90
75091;DHT22;63674;48.048;8.306;2024-03-23T10:18:28;6.30;99.90
75091;DHT22;63674;48.048;8.306;2024-03-23T10:21:07;6.10;99.90
75091;DHT22;63674;48.048;8.306;2024-03-23T10:23:37;6.10;99.90
75091;DHT22;63674;48.048;8.306;2024-03-23T10:26:15;6.10;99.90
75091;DHT22;63674;48.048;8.306;2024-03-23T10:28:57;6.20;99.90
75091;DHT22;63674;48.048;8.306;2024-03-23T10:33:56;6.20;99.90
75091;DHT22;63674;48.048;8.306;2024-03-23T10:36:23;6.10;99.90
75091;DHT22;63674;48.048;8.306;2024-03-23T10:38:52;6.00;99.90
75091;DHT22;63674;48.048;8.306;2024-03-23T10:41:20;6.00;99.90
75091;DHT22;63674;48.048;8.306;2024-03-23T10:43:48;6.00;99.90
75091;DHT22;63674;48.048;8.306;2024-03-23T10:46:15;5.90;99.90
75091;DHT22;63674;48.048;8.306;2024-03-23T10:48:44;6.00;99.90
75091;DHT22;63674;48.048;8.306;2024-03-23T10:51:13;6.10;99.90
75091;DHT22;63674;48.048;8.306;2024-03-23T10:53:41;6.10;99.90
75091;DHT22;63674;48.048;8.306;2024-03-23T10:56:08;5.90;99.90
75091;DHT22;63674;48.048;8.306;2024-03-23T10:58:39;6.00;99.90
75091;DHT22;63674;48.048;8.306;2024-03-23T11:01:07;6.30;99.90
75091;DHT22;63674;48.048;8.306;2024-03-23T11:03:38;6.20;99.90
75091;DHT22;63674;48.048;8.306;2024-03-23T11:06:06;6.00;99.90
75091;DHT22;63674;48.048;8.306;2024-03-23T11:08:36;5.90;99.90
75091;DHT22;63674;48.048;8.306;2024-03-23T11:11:14;5.80;99.90
75091;DHT22;63674;48.048;8.306;2024-03-23T11:16:15;5.20;99.90
75091;DHT22;63674;48.048;8.306;2024-03-23T11:18:43;4.90;99.90
75091;DHT22;63674;48.048;8.306;2024-03-23T11:21:11;4.80;99.90
75091;DHT22;63674;48.048;8.306;2024-03-23T11:23:39;4.60;99.90
75091;DHT22;63674;48.048;8.306;2024-03-23T11:26:09;4.60;99.90
75091;DHT22;63674;48.048;8.306;2024-03-23T11:28:36;4.60;99.90
75091;DHT22;63674;48.048;8.306;2024-03-23T11:31:09;4.50;99.90
75091;DHT22;63674;48.048;8.306;2024-03-23T11:33:37;4.50;99.90
75091;DHT22;63674;48.048;8.306;2024-03-23T11:36:05;4.40;99.90
75091;DHT22;63674;48.048;8.306;2024-03-23T11:38:36;4.90;99.90
75091;DHT22;63674;48.048;8.306;2024-03-23T11:41:04;4.60;99.90
75091;DHT22;63674;48.048;8.306;2024-03-23T11:43:32;4.20;99.90
75091;DHT22;63674;48.048;8.306;2024-03-23T11:45:58;4.90;99.90
75091;DHT22;63674;48.048;8.306;2024-03-23T11:48:29;4.70;99.90
75091;DHT22;63674;48.048;8.306;2024-03-23T11:50:57;5.00;99.90
75091;DHT22;63674;48.048;8.306;2024-03-23T11:53:25;4.70;99.90
75091;DHT22;63674;48.048;8.306;2024-03-23T11:55:54;5.20;99.90
75091;DHT22;63674;48.048;8.306;2024-03-23T11:58:25;5.30;99.90
75091;DHT22;63674;48.048;8.306;2024-03-23T12:00:55;5.50;99.90
75091;DHT22;63674;48.048;8.306;2024-03-23T12:03:24;5.50;99.90
75091;DHT22;63674;48.048;8.306;2024-03-23T12:05:53;5.50;99.90
75091;DHT22;63674;48.048;8.306;2024-03-23T12:08:23;5.70;99.90
75091;DHT22;63674;48.048;8.306;2024-03-23T12:10:51;5.70;99.90
75091;DHT22;63674;48.048;8.306;2024-03-23T12:13:20;5.50;99.90
75091;DHT22;63674;48.048;8.306;2024-03-23T12:15:49;5.40;99.90
75091;DHT22;63674;48.048;8.306;2024-03-23T12:18:18;5.60;99.90
75091;DHT22;63674;48.048;8.306;2024-03-23T12:20:50;5.30;99.90
75091;DHT22;63674;48.048;8.306;2024-03-23T12:23:17;5.20;99.90
75091;DHT22;63674;48.048;8.306;2024-03-23T12:30:39;5.00;99.90
75091;DHT22;63674;48.048;8.306;2024-03-23T12:33:08;5.20;99.90
75091;DHT22;63674;48.048;8.306;2024-03-23T12:38:02;5.60;99.90
75091;DHT22;63674;48.048;8.306;2024-03-23T12:40:29;5.60;99.90
75091;DHT22;63674;48.048;8.306;2024-03-23T12:42:57;6.20;99.90
75091;DHT22;63674;48.048;8.306;2024-03-23T12:45:23;6.40;99.90
75091;DHT22;63674;48.048;8.306;2024-03-23T12:47:51;6.60;99.90
75091;DHT22;63674;48.048;8.306;2024-03-23T12:50:21;6.00;99.90
75091;DHT22;63674;48.048;8.306;2024-03-23T12:57:43;6.40;99.90
75091;DHT22;63674;48.048;8.306;2024-03-23T13:00:11;6.50;99.90
75091;DHT22;63674;48.048;8.306;2024-03-23T13:02:39;6.40;99.90
75091;DHT22;63674;48.048;8.306;2024-03-23T13:05:07;6.40;99.90
75091;DHT22;63674;48.048;8.306;2024-03-23T13:07:36;6.30;99.90
75091;DHT22;63674;48.048;8.306;2024-03-23T13:10:05;6.10;99.90
75091;DHT22;63674;48.048;8.306;2024-03-23T13:12:32;6.20;99.90
75091;DHT22;63674;48.048;8.306;2024-03-23T13:15:00;6.40;99.90
75091;DHT22;63674;48.048;8.306;2024-03-23T13:19:55;6.50;99.90
75091;DHT22;63674;48.048;8.306;2024-03-23T13:22:22;6.50;99.90
75091;DHT22;63674;48.048;8.306;2024-03-23T13:24:51;6.30;99.90
75091;DHT22;63674;48.048;8.306;2024-03-23T13:27:17;6.40;99.90
75091;DHT22;63674;48.048;8.306;2024-03-23T13:29:45;6.40;99.90
75091;DHT22;63674;48.048;8.306;2024-03-23T13:32:12;6.40;99.90
75091;DHT22;63674;48.048;8.306;2024-03-23T13:37:07;6.30;99.90
75091;DHT22;63674;48.048;8.306;2024-03-23T13:42:04;5.70;99.90
75091;DHT22;63674;48.048;8.306;2024-03-23T13:44:32;5.10;99.90
75091;DHT22;63674;48.048;8.306;2024-03-23T13:49:28;4.90;99.90
75091;DHT22;63674;48.048;8.306;2024-03-23T13:51:57;4.90;99.90
75091;DHT22;63674;48.048;8.306;2024-03-23T13:56:52;5.40;99.90
75091;DHT22;63674;48.048;8.306;2024-03-23T13:59:22;5.50;99.90
75091;DHT22;63674;48.048;8.306;2024-03-23T14:04:17;5.00;99.90
75091;DHT22;63674;48.048;8.306;2024-03-23T14:06:45;5.40;99.90
75091;DHT22;63674;48.048;8.306;2024-03-23T14:09:13;5.50;99.90
75091;DHT22;63674;48.048;8.306;2024-03-23T14:11:40;5.70;99.90
75091;DHT22;63674;48.048;8.306;2024-03-23T14:14:09;5.60;99.90
75091;DHT22;63674;48.048;8.306;2024-03-23T14:16:37;5.70;99.90
75091;DHT22;63674;48.048;8.306;2024-03-23T14:19:04;5.50;99.90
75091;DHT22;63674;48.048;8.306;2024-03-23T14:21:31;5.70;99.90
75091;DHT22;63674;48.048;8.306;2024-03-23T14:24:00;5.60;99.90
75091;DHT22;63674;48.048;8.306;2024-03-23T14:26:26;5.40;99.90
75091;DHT22;63674;48.048;8.306;2024-03-23T14:28:54;5.30;99.90
75091;DHT22;63674;48.048;8.306;2024-03-23T14:31:21;5.40;99.90
75091;DHT22;63674;48.048;8.306;2024-03-23T14:33:50;5.20;99.90
75091;DHT22;63674;48.048;8.306;2024-03-23T14:36:17;5.30;99.90
75091;DHT22;63674;48.048;8.306;2024-03-23T14:38:47;5.10;99.90
75091;DHT22;63674;48.048;8.306;2024-03-23T14:41:14;5.10;99.90
75091;DHT22;63674;48.048;8.306;2024-03-23T14:43:42;4.90;99.90
75091;DHT22;63674;48.048;8.306;2024-03-23T14:46:10;5.00;99.90
75091;DHT22;63674;48.048;8.306;2024-03-23T14:48:39;4.90;99.90
75091;DHT22;63674;48.048;8.306;2024-03-23T14:51:08;4.90;99.90
75091;DHT22;63674;48.048;8.306;2024-03-23T14:53:38;4.80;99.90
75091;DHT22;63674;48.048;8.306;2024-03-23T14:56:06;4.90;99.90
75091;DHT22;63674;48.048;8.306;2024-03-23T14:58:36;4.90;99.90
75091;DHT22;63674;48.048;8.306;2024-03-23T15:01:03;4.70;99.90
75091;DHT22;63674;48.048;8.306;2024-03-23T15:03:31;4.70;99.90
75091;DHT22;63674;48.048;8.306;2024-03-23T15:05:58;4.50;99.90
75091;DHT22;63674;48.048;8.306;2024-03-23T15:08:29;4.80;99.90
75091;DHT22;63674;48.048;8.306;2024-03-23T15:10:59;4.40;99.90
75091;DHT22;63674;48.048;8.306;2024-03-23T15:13:31;4.50;99.90
75091;DHT22;63674;48.048;8.306;2024-03-23T15:18:25;4.50;99.90
75091;DHT22;63674;48.048;8.306;2024-03-23T15:20:52;4.40;99.90
75091;DHT22;63674;48.048;8.306;2024-03-23T15:23:20;4.60;99.90
75091;DHT22;63674;48.048;8.306;2024-03-23T15:25:54;4.50;99.90
75091;DHT22;63674;48.048;8.306;2024-03-23T15:28:21;4.70;99.90
75091;DHT22;63674;48.048;8.306;2024-03-23T15:30:48;4.50;99.90
75091;DHT22;63674;48.048;8.306;2024-03-23T15:35:42;4.60;99.90
75091;DHT22;63674;48.048;8.306;2024-03-23T15:38:10;3.90;99.90
75091;DHT22;63674;48.048;8.306;2024-03-23T15:40:36;4.40;99.90
75091;DHT22;63674;48.048;8.306;2024-03-23T15:43:05;4.30;99.90
75091;DHT22;63674;48.048;8.306;2024-03-23T15:45:32;4.50;99.90
75091;DHT22;63674;48.048;8.306;2024-03-23T15:47:59;4.20;99.90
75091;DHT22;63674;48.048;8.306;2024-03-23T15:52:53;4.20;99.90
75091;DHT22;63674;48.048;8.306;2024-03-23T15:55:22;4.20;99.90
75091;DHT22;63674;48.048;8.306;2024-03-23T15:57:49;3.70;99.90
75091;DHT22;63674;48.048;8.306;2024-03-23T16:00:18;3.70;99.90
75091;DHT22;63674;48.048;8.306;2024-03-23T16:02:45;4.30;99.90
75091;DHT22;63674;48.048;8.306;2024-03-23T16:05:12;4.30;99.90
75091;DHT22;63674;48.048;8.306;2024-03-23T16:07:40;4.20;99.90
75091;DHT22;63674;48.048;8.306;2024-03-23T16:10:07;4.10;99.90
75091;DHT22;63674;48.048;8.306;2024-03-23T16:12:36;4.00;99.90
75091;DHT22;63674;48.048;8.306;2024-03-23T16:15:03;3.80;99.90
75091;DHT22;63674;48.048;8.306;2024-03-23T16:17:33;3.70;99.90
75091;DHT22;63674;48.048;8.306;2024-03-23T16:20:02;3.40;99.90
75091;DHT22;63674;48.048;8.306;2024-03-23T16:24:57;3.60;99.90
75091;DHT22;63674;48.048;8.306;2024-03-23T16:27:24;3.40;99.90
75091;DHT22;63674;48.048;8.306;2024-03-23T16:29:51;3.20;99.90
75091;DHT22;63674;48.048;8.306;2024-03-23T16:34:47;3.50;99.90
75091;DHT22;63674;48.048;8.306;2024-03-23T16:37:14;2.70;99.90
75091;DHT22;63674;48.048;8.306;2024-03-23T16:39:41;3.30;99.90
75091;DHT22;63674;48.048;8.306;2024-03-23T16:42:08;3.20;99.90
75091;DHT22;63674;48.048;8.306;2024-03-23T16:44:35;2.70;99.90
75091;DHT22;63674;48.048;8.306;2024-03-23T16:49:29;2.90;99.90
75091;DHT22;63674;48.048;8.306;2024-03-23T16:51:58;2.50;99.90
75091;DHT22;63674;48.048;8.306;2024-03-23T16:56:52;2.20;99.90
75091;DHT22;63674;48.048;8.306;2024-03-23T16:59:19;2.30;99.90
75091;DHT22;63674;48.048;8.306;2024-03-23T17:04:13;2.30;99.90
75091;DHT22;63674;48.048;8.306;2024-03-23T17:09:09;2.40;99.90
75091;DHT22;63674;48.048;8.306;2024-03-23T17:11:37;1.80;99.90
75091;DHT22;63674;48.048;8.306;2024-03-23T17:14:04;3.00;99.90
75091;DHT22;63674;48.048;8.306;2024-03-23T17:16:32;3.10;99.90
75091;DHT22;63674;48.048;8.306;2024-03-23T17:18:58;3.10;99.90
75091;DHT22;63674;48.048;8.306;2024-03-23T17:21:26;2.50;99.90
75091;DHT22;63674;48.048;8.306;2024-03-23T17:26:24;2.50;99.90
75091;DHT22;63674;48.048;8.306;2024-03-23T17:31:19;2.20;99.90
75091;DHT22;63674;48.048;8.306;2024-03-23T17:33:49;2.20;99.90
75091;DHT22;63674;48.048;8.306;2024-03-23T17:36:17;2.50;99.90
75091;DHT22;63674;48.048;8.306;2024-03-23T17:38:53;1.50;99.90
75091;DHT22;63674;48.048;8.306;2024-03-23T17:41:21;1.20;99.90
75091;DHT22;63674;48.048;8.306;2024-03-23T17:43:49;1.50;99.90
75091;DHT22;63674;48.048;8.306;2024-03-23T17:46:17;2.40;99.90
75091;DHT22;63674;48.048;8.306;2024-03-23T17:53:40;2.30;99.90
75091;DHT22;63674;48.048;8.306;2024-03-23T17:58:36;2.40;99.90
75091;DHT22;63674;48.048;8.306;2024-03-23T18:01:09;2.40;99.90
75091;DHT22;63674;48.048;8.306;2024-03-23T18:03:35;2.60;99.90
75091;DHT22;63674;48.048;8.306;2024-03-23T18:06:03;2.30;99.90
75091;DHT22;63674;48.048;8.306;2024-03-23T18:08:30;2.30;99.90
75091;DHT22;63674;48.048;8.306;2024-03-23T18:13:32;1.90;99.90
75091;DHT22;63674;48.048;8.306;2024-03-23T18:16:00;2.20;99.90
75091;DHT22;63674;48.048;8.306;2024-03-23T18:18:27;2.20;99.90
75091;DHT22;63674;48.048;8.306;2024-03-23T18:23:22;2.50;99.90
75091;DHT22;63674;48.048;8.306;2024-03-23T18:25:51;2.20;99.90
75091;DHT22;63674;48.048;8.306;2024-03-23T18:28:18;2.20;99.90
75091;DHT22;63674;48.048;8.306;2024-03-23T18:30:46;2.50;99.90
75091;DHT22;63674;48.048;8.306;2024-03-23T18:35:51;2.10;99.90
75091;DHT22;63674;48.048;8.306;2024-03-23T18:38:18;2.10;99.90
75091;DHT22;63674;48.048;8.306;2024-03-23T18:40:45;1.30;99.90
75091;DHT22;63674;48.048;8.306;2024-03-23T18:43:12;2.20;99.90
75091;DHT22;63674;48.048;8.306;2024-03-23T18:45:45;2.20;99.90
75091;DHT22;63674;48.048;8.306;2024-03-23T18:53:09;2.10;99.90
75091;DHT22;63674;48.048;8.306;2024-03-23T18:55:37;1.70;99.90
75091;DHT22;63674;48.048;8.306;2024-03-23T18:58:03;2.20;99.90
75091;DHT22;63674;48.048;8.306;2024-03-23T19:02:59;2.40;99.90
75091;DHT22;63674;48.048;8.306;2024-03-23T19:05:26;2.50;99.90
75091;DHT22;63674;48.048;8.306;2024-03-23T19:07:53;2.30;99.90
75091;DHT22;63674;48.048;8.306;2024-03-23T19:10:22;2.20;99.90
75091;DHT22;63674;48.048;8.306;2024-03-23T19:12:48;1.80;99.90
75091;DHT22;63674;48.048;8.306;2024-03-23T19:15:16;2.20;99.90
75091;DHT22;63674;48.048;8.306;2024-03-23T19:17:42;2.20;99.90
75091;DHT22;63674;48.048;8.306;2024-03-23T19:20:11;2.10;99.90
75091;DHT22;63674;48.048;8.306;2024-03-23T19:22:39;1.90;99.90
75091;DHT22;63674;48.048;8.306;2024-03-23T19:25:07;2.00;99.90